Time;durP1;ratioP1;P1;durP2;ratioP2;P2;SDS_P1;SDS_P2;PMS_P1;PMS_P2;Temp;Humidity;BMP_temperature;BMP_pressure;BME280_temperature;BME280_humidity;BME280_pressure;Samples;Min_cycle;Max_cycle;Signal;HPM_P1;HPM_P2
2023/08/27 18:59:53;;;;;;;10.82;6.60;;;;;;;27.15;71.44;99804.97;5093634;27;20407;-74
2023/08/27 19:02:22;;;;;;;8.18;5.70;;;;;;;27.33;68.78;99802.81;5104652;28;20052;-75
2023/08/27 19:04:50;;;;;;;8.30;6.55;;;;;;;27.37;68.57;99791.56;5092461;28;20403;-75
2023/08/27 19:07:19;;;;;;;7.55;5.97;;;;;;;27.37;69.34;99800.00;5087957;28;20056;-75
2023/08/27 19:09:48;;;;;;;8.48;5.45;;;;;;;27.38;68.73;99790.34;5100998;28;20391;-74
2023/08/27 19:12:16;;;;;;;7.22;5.70;;;;;;;27.34;68.26;99798.00;5098450;28;20053;-75
2023/08/27 19:14:45;;;;;;;6.38;5.05;;;;;;;27.31;68.73;99791.19;5092647;28;20398;-75
2023/08/27 19:17:14;;;;;;;8.07;5.70;;;;;;;27.36;68.07;99787.94;5096802;28;20048;-74
2023/08/27 19:19:43;;;;;;;7.57;5.72;;;;;;;27.37;67.28;99786.72;5098268;28;20056;-74
2023/08/27 19:22:11;;;;;;;8.90;5.65;;;;;;;27.40;67.60;99784.28;5096153;28;20040;-74
2023/08/27 19:24:43;;;;;;;7.50;5.45;;;;;;;27.40;67.15;99789.91;5089857;28;20063;-75
2023/08/27 19:27:11;;;;;;;7.68;5.38;;;;;;;27.46;66.97;99777.03;5089058;28;20403;-75
2023/08/27 19:29:39;;;;;;;11.90;5.47;;;;;;;27.46;65.93;99779.84;5101931;28;20423;-75
2023/08/27 19:32:08;;;;;;;8.10;6.47;;;;;;;27.52;66.34;99763.31;5106674;28;20055;-75
2023/08/27 19:34:36;;;;;;;10.27;7.30;;;;;;;27.58;63.86;99772.91;5095562;28;20406;-75
2023/08/27 19:37:06;;;;;;;13.95;9.13;;;;;;;27.78;62.55;99775.91;5093856;28;20510;-75
2023/08/27 19:39:34;;;;;;;14.15;9.10;;;;;;;27.86;59.42;99771.03;5107419;28;20047;-75
2023/08/27 19:42:03;;;;;;;17.63;10.73;;;;;;;27.84;60.98;99774.25;5092905;28;20047;-75
2023/08/27 19:44:31;;;;;;;21.45;11.90;;;;;;;27.82;60.37;99778.69;5103891;28;20091;-75
2023/08/27 19:47:00;;;;;;;22.83;11.07;;;;;;;27.98;61.42;99772.47;5103594;28;20052;-75
2023/08/27 19:49:28;;;;;;;17.40;10.30;;;;;;;28.09;60.54;99777.97;5090992;28;20055;-75
2023/08/27 19:51:57;;;;;;;15.57;9.43;;;;;;;28.17;59.14;99771.03;5099950;28;20036;-75
2023/08/27 19:54:26;;;;;;;18.48;10.70;;;;;;;28.28;59.08;99780.16;5097298;28;20048;-75
2023/08/27 19:56:55;;;;;;;11.07;7.75;;;;;;;28.27;59.55;99780.59;5102580;28;20062;-75
2023/08/27 19:59:23;;;;;;;13.50;7.20;;;;;;;28.34;59.28;99788.91;5098894;28;20091;-75
2023/08/27 20:01:52;;;;;;;9.57;7.28;;;;;;;28.32;59.64;99782.94;5105573;28;20067;-75
2023/08/27 20:04:21;;;;;;;13.07;8.15;;;;;;;28.34;60.29;99774.84;5099048;28;20386;-75
2023/08/27 20:06:49;;;;;;;11.23;8.52;;;;;;;28.36;60.73;99766.00;5089975;28;20376;-75
2023/08/27 20:09:19;;;;;;;10.93;6.57;;;;;;;28.11;61.94;99744.59;5097011;28;20403;-75
2023/08/27 20:11:48;;;;;;;14.43;9.45;;;;;;;28.08;62.15;99737.81;5087389;28;20044;-73
2023/08/27 20:14:16;;;;;;;8.02;6.63;;;;;;;28.13;62.19;99744.97;5082334;28;20055;-76
2023/08/27 20:16:45;;;;;;;9.32;6.00;;;;;;;28.09;62.13;99744.25;5083021;28;20051;-82
2023/08/27 20:19:14;;;;;;;12.00;6.93;;;;;;;28.25;62.00;99735.22;5093681;28;20497;-77
2023/08/27 20:21:45;;;;;;;9.73;6.97;;;;;;;28.24;61.60;99720.34;5089399;28;20402;-73
2023/08/27 20:24:14;;;;;;;13.93;8.45;;;;;;;28.21;61.73;99718.38;5089248;28;20402;-74
2023/08/27 20:26:42;;;;;;;8.40;6.45;;;;;;;28.21;62.13;99726.00;5087065;28;20052;-75
2023/08/27 20:29:11;;;;;;;10.45;6.90;;;;;;;28.11;62.16;99725.69;5089840;28;20406;-75
2023/08/27 20:31:40;;;;;;;9.52;6.70;;;;;;;28.01;62.86;99724.63;5079452;28;20060;-78
2023/08/27 20:34:09;;;;;;;8.32;6.43;;;;;;;27.95;63.56;99717.09;5091140;28;20040;-74
2023/08/27 20:36:40;;;;;;;8.70;6.63;;;;;;;28.03;62.78;99722.22;5084232;28;20047;-75
2023/08/27 20:39:09;;;;;;;9.93;6.88;;;;;;;27.92;63.26;99723.56;5092545;28;20044;-73
2023/08/27 20:41:39;;;;;;;10.20;6.78;;;;;;;27.89;63.31;99719.56;5089004;28;20406;-86
2023/08/27 20:44:07;;;;;;;14.23;7.55;;;;;;;27.98;63.06;99707.81;5081078;28;20788;-87
2023/08/27 20:46:36;;;;;;;12.65;7.78;;;;;;;27.96;63.43;99699.78;5083361;28;20040;-89
2023/08/27 20:49:04;;;;;;;10.32;7.40;;;;;;;27.88;63.85;99687.88;5090879;28;20066;-88
2023/08/27 20:51:40;;;;;;;8.57;6.90;;;;;;;27.89;64.06;99686.66;5074284;28;20501;-88
2023/08/27 20:54:12;;;;;;;9.60;7.55;;;;;;;27.89;64.04;99685.84;5094403;28;20057;-90
2023/08/27 20:56:44;;;;;;;10.35;8.05;;;;;;;27.83;64.69;99701.56;5096146;28;20040;-90
2023/08/27 20:59:14;;;;;;;10.48;7.07;;;;;;;27.95;64.12;99714.28;5094166;28;20052;-90
2023/08/27 21:01:50;;;;;;;12.70;7.82;;;;;;;27.94;64.13;99716.28;5094162;28;20406;-88
2023/08/27 21:04:21;;;;;;;13.10;6.85;;;;;;;27.72;65.31;99716.53;5077593;28;20586;-88
2023/08/27 21:06:54;;;;;;;8.40;6.60;;;;;;;27.74;65.17;99725.38;5070515;28;20045;-88
2023/08/27 21:09:26;;;;;;;11.98;7.53;;;;;;;27.84;64.96;99720.84;5090192;28;20036;-89
2023/08/27 21:12:10;;;;;;;9.27;7.10;;;;;;;27.69;65.62;99710.97;5069259;28;20053;-87
2023/08/27 21:14:38;;;;;;;9.55;6.75;;;;;;;27.76;65.91;99716.53;5092971;28;20481;-84
2023/08/27 21:17:07;;;;;;;8.50;7.20;;;;;;;27.82;65.58;99714.84;5081121;28;20703;-87
2023/08/27 21:19:35;;;;;;;10.68;7.00;;;;;;;27.74;66.35;99702.09;5087917;28;20056;-86
2023/08/27 21:22:04;;;;;;;8.48;6.43;;;;;;;27.89;65.69;99702.69;5071582;28;20044;-88
2023/08/27 21:24:33;;;;;;;10.05;7.47;;;;;;;27.81;65.72;99698.41;5078566;28;20052;-87
2023/08/27 21:27:02;;;;;;;12.23;7.20;;;;;;;27.88;65.85;99706.72;5115574;27;20044;-88
2023/08/27 21:29:33;;;;;;;15.80;7.13;;;;;;;27.99;65.62;99707.41;5054393;28;20041;-88
2023/08/27 21:32:01;;;;;;;10.07;7.07;;;;;;;27.98;65.46;99705.81;5089939;28;20040;-87
2023/08/27 21:34:30;;;;;;;9.00;7.13;;;;;;;27.91;66.11;99703.09;5078263;28;20051;-89
2023/08/27 21:36:59;;;;;;;7.47;6.70;;;;;;;27.99;65.42;99706.59;5065822;28;20048;-86
2023/08/27 21:39:27;;;;;;;9.65;7.63;;;;;;;27.96;65.82;99696.19;5085067;28;20055;-88
2023/08/27 21:41:57;;;;;;;10.63;7.97;;;;;;;28.01;66.15;99693.69;5077040;28;20371;-89
2023/08/27 21:44:26;;;;;;;10.43;7.28;;;;;;;28.09;65.78;99690.81;5093519;28;20055;-88
2023/08/27 21:46:54;;;;;;;10.60;8.40;;;;;;;28.23;65.35;99673.75;5066115;28;20056;-90
2023/08/27 21:49:25;;;;;;;11.23;7.63;;;;;;;28.09;65.75;99655.03;5068180;28;20055;-86
2023/08/27 21:51:54;;;;;;;10.88;8.18;;;;;;;28.23;65.31;99653.25;5075502;28;20045;-87
2023/08/27 21:54:22;;;;;;;13.70;8.35;;;;;;;28.29;66.04;99626.25;5088799;28;20040;-87
2023/08/27 21:56:51;;;;;;;10.20;8.05;;;;;;;28.17;65.78;99599.50;5082226;28;20040;-88
2023/08/27 21:59:19;;;;;;;9.68;7.88;;;;;;;28.26;65.46;99607.41;5095521;28;20066;-85
2023/08/27 22:01:47;;;;;;;11.98;7.55;;;;;;;28.15;65.24;99607.56;5107272;27;20044;-86
2023/08/27 22:04:16;;;;;;;10.63;8.07;;;;;;;28.16;65.60;99581.03;5071810;28;20047;-89
2023/08/27 22:06:46;;;;;;;11.38;8.15;;;;;;;28.12;65.43;99560.59;5071635;28;20048;-91
2023/08/27 22:09:14;;;;;;;10.20;7.38;;;;;;;28.05;65.10;99530.56;5071854;28;20056;-87
2023/08/27 22:11:42;;;;;;;10.75;7.95;;;;;;;28.01;64.96;99524.22;5071228;28;20052;-88
2023/08/27 22:14:10;;;;;;;11.95;8.27;;;;;;;28.15;64.59;99512.72;5071770;28;20048;-92
2023/08/27 22:16:38;;;;;;;10.45;7.93;;;;;;;28.26;62.92;99506.16;5071514;28;20047;-87
2023/08/27 22:19:06;;;;;;;9.43;8.00;;;;;;;28.25;62.45;99487.69;5071302;28;20049;-86
2023/08/27 22:21:49;;;;;;;13.18;8.30;;;;;;;28.41;62.32;99467.31;5071388;28;20043;-87
2023/08/27 22:24:17;;;;;;;10.48;7.95;;;;;;;28.30;61.32;99459.88;5072541;28;20052;-89
2023/08/27 22:26:45;;;;;;;10.35;7.93;;;;;;;28.34;61.47;99447.75;5072468;28;20049;-84
2023/08/27 22:29:14;;;;;;;12.25;7.70;;;;;;;28.47;61.38;99436.66;5072416;28;20067;-89
2023/08/27 22:31:41;;;;;;;12.77;7.68;;;;;;;28.54;61.17;99426.06;5072328;28;20475;-87
2023/08/27 22:34:09;;;;;;;8.65;7.65;;;;;;;28.69;60.75;99420.94;5072175;28;20052;-87
2023/08/27 22:36:37;;;;;;;10.88;6.97;;;;;;;28.54;59.08;99405.59;5072380;28;20044;-86
2023/08/27 22:39:05;;;;;;;9.63;7.20;;;;;;;28.46;59.79;99413.38;5071090;28;20092;-87
2023/08/27 22:41:34;;;;;;;12.20;8.15;;;;;;;28.59;59.04;99399.41;5072267;28;20055;-88
2023/08/27 22:44:02;;;;;;;15.32;8.23;;;;;;;28.61;57.26;99402.63;5072204;28;20056;-82
2023/08/27 22:46:30;;;;;;;12.52;6.93;;;;;;;28.69;55.13;99404.03;5072183;28;20483;-86
2023/08/27 22:48:58;;;;;;;9.80;7.18;;;;;;;28.69;53.31;99401.22;5072121;28;20045;-86
2023/08/27 22:51:26;;;;;;;11.32;6.70;;;;;;;28.83;53.98;99385.25;5070846;28;20052;-88
2023/08/27 22:53:54;;;;;;;8.50;6.85;;;;;;;28.82;51.97;99375.22;5072136;28;20051;-89
2023/08/27 22:56:22;;;;;;;9.15;6.63;;;;;;;28.90;50.70;99378.72;5070997;28;20077;-85
2023/08/27 22:58:51;;;;;;;8.25;6.80;;;;;;;28.93;50.71;99378.63;5071917;28;20055;-88
2023/08/27 23:01:19;;;;;;;10.07;6.63;;;;;;;28.97;50.43;99387.00;5075047;28;20509;-86
2023/08/27 23:03:47;;;;;;;7.55;6.32;;;;;;;28.98;51.01;99385.75;5072023;28;20044;-88
2023/08/27 23:06:15;;;;;;;7.68;6.43;;;;;;;28.95;49.92;99378.19;5070799;28;20052;-84
2023/08/27 23:08:44;;;;;;;8.23;6.32;;;;;;;29.04;50.93;99389.66;5071980;28;20395;-88
2023/08/27 23:11:12;;;;;;;8.00;6.60;;;;;;;28.93;48.70;99378.63;5070798;28;20045;-87
2023/08/27 23:13:39;;;;;;;9.02;6.90;;;;;;;29.00;48.90;99393.78;5070811;28;20068;-90
2023/08/27 23:16:08;;;;;;;7.57;6.50;;;;;;;29.07;49.63;99396.44;5070677;28;20049;-88
2023/08/27 23:18:35;;;;;;;6.85;6.10;;;;;;;29.04;48.02;99402.94;5070505;28;20068;-86
2023/08/27 23:21:04;;;;;;;9.52;7.28;;;;;;;29.09;47.85;99391.16;5071738;28;20052;-87
2023/08/27 23:23:32;;;;;;;8.98;6.25;;;;;;;29.00;47.37;99397.41;5071817;28;20048;-87
2023/08/27 23:26:00;;;;;;;9.20;6.20;;;;;;;29.02;47.52;99383.66;5071772;28;20066;-86
2023/08/27 23:28:29;;;;;;;7.53;6.43;;;;;;;29.14;47.57;99376.56;5071776;28;20036;-87
2023/08/27 23:30:58;;;;;;;10.20;6.35;;;;;;;29.20;47.71;99380.44;5071777;28;20369;-86
2023/08/27 23:33:27;;;;;;;8.25;6.22;;;;;;;29.10;47.93;99379.47;5071889;28;20044;-87
2023/08/27 23:35:54;;;;;;;8.60;6.03;;;;;;;29.15;47.01;99386.59;5071774;28;20037;-87
2023/08/27 23:38:22;;;;;;;8.60;5.88;;;;;;;29.12;47.76;99384.66;5071766;28;20530;-88
2023/08/27 23:40:50;;;;;;;8.55;6.00;;;;;;;29.21;47.89;99387.66;5071572;28;20053;-86
2023/08/27 23:43:18;;;;;;;9.13;6.47;;;;;;;29.16;48.87;99393.81;5071301;28;20067;-86
2023/08/27 23:45:46;;;;;;;9.57;6.07;;;;;;;29.08;47.58;99417.75;5074217;28;20063;-86
2023/08/27 23:48:15;;;;;;;10.18;6.40;;;;;;;29.09;48.38;99430.59;5073573;28;20040;-89
2023/08/27 23:50:43;;;;;;;7.97;6.53;;;;;;;29.08;49.37;99435.41;5075599;28;20049;-85
2023/08/27 23:53:11;;;;;;;8.90;6.75;;;;;;;28.97;49.08;99444.13;5075380;28;20491;-84
2023/08/27 23:55:39;;;;;;;8.25;5.90;;;;;;;28.87;49.32;99459.19;5075236;28;20055;-83
2023/08/27 23:58:07;;;;;;;8.52;6.07;;;;;;;28.88;50.30;99460.78;5073398;28;20048;-87
